Time;durP1;ratioP1;P1;durP2;ratioP2;P2;SDS_P1;SDS_P2;PMS_P1;PMS_P2;Temp;Humidity;BMP_temperature;BMP_pressure;BME280_temperature;BME280_humidity;BME280_pressure;Samples;Min_cycle;Max_cycle;Signal;HPM_P1;HPM_P2
2023/04/07 00:01:02;;;;;;;59.30;35.88;;;;;;;4.06;100.00;100212.19;5072289;28;20060;-69
2023/04/07 00:03:27;;;;;;;62.15;38.58;;;;;;;4.07;100.00;100218.38;5089673;28;20042;-69
2023/04/07 00:05:53;;;;;;;59.58;37.15;;;;;;;4.01;100.00;100221.41;5085610;28;20049;-69
2023/04/07 00:08:18;;;;;;;61.53;36.63;;;;;;;3.96;100.00;100204.91;5086681;28;20059;-68
2023/04/07 00:10:44;;;;;;;63.00;39.83;;;;;;;4.01;100.00;100200.19;5090637;28;20028;-69
2023/04/07 00:13:09;;;;;;;59.70;37.75;;;;;;;4.06;100.00;100204.22;5068604;28;20024;-69
2023/04/07 00:15:35;;;;;;;58.15;37.25;;;;;;;3.93;100.00;100198.00;5088451;28;20360;-69
2023/04/07 00:18:00;;;;;;;58.25;36.95;;;;;;;3.88;100.00;100205.41;5089098;28;20097;-69
2023/04/07 00:20:26;;;;;;;56.58;36.78;;;;;;;3.68;100.00;100192.50;5088355;28;20035;-69
2023/04/07 00:22:51;;;;;;;60.60;38.63;;;;;;;3.80;100.00;100199.72;5089033;28;20024;-69
2023/04/07 00:25:17;;;;;;;59.35;37.72;;;;;;;3.80;100.00;100189.09;5088525;28;20028;-69
2023/04/07 00:27:42;;;;;;;62.45;37.85;;;;;;;3.85;100.00;100207.38;5088997;28;20032;-69
2023/04/07 00:30:08;;;;;;;58.20;36.95;;;;;;;3.84;100.00;100211.81;5088488;28;20153;-69
2023/04/07 00:32:34;;;;;;;58.63;38.45;;;;;;;3.80;100.00;100212.09;5088690;28;20024;-69
2023/04/07 00:35:00;;;;;;;56.92;37.03;;;;;;;3.75;100.00;100206.25;5088830;28;20036;-69
2023/04/07 00:37:25;;;;;;;59.50;35.75;;;;;;;3.52;100.00;100191.75;5088340;28;20380;-70
2023/04/07 00:39:51;;;;;;;54.60;35.97;;;;;;;3.73;100.00;100187.78;5070104;28;20118;-69
2023/04/07 00:42:17;;;;;;;54.50;35.33;;;;;;;3.69;100.00;100194.22;5087879;28;20028;-69
2023/04/07 00:44:42;;;;;;;53.13;35.78;;;;;;;3.72;100.00;100209.97;5088973;28;20035;-69
2023/04/07 00:47:08;;;;;;;52.33;33.75;;;;;;;3.56;100.00;100189.75;5088186;28;20034;-69
2023/04/07 00:49:35;;;;;;;54.08;35.05;;;;;;;3.65;100.00;100207.75;5088372;28;20110;-69
2023/04/07 00:52:01;;;;;;;52.28;35.80;;;;;;;3.50;100.00;100192.78;5088383;28;20794;-69
2023/04/07 00:54:29;;;;;;;52.20;33.97;;;;;;;3.59;100.00;100206.34;5069588;28;20024;-69
2023/04/07 00:56:54;;;;;;;54.75;35.40;;;;;;;3.46;100.00;100184.19;5088242;28;20035;-69
2023/04/07 00:59:20;;;;;;;59.58;36.33;;;;;;;3.51;100.00;100207.78;5087806;28;20021;-70
2023/04/07 01:02:04;;;;;;;52.63;34.53;;;;;;;3.52;100.00;100217.41;5088382;28;20126;-70
2023/04/07 01:04:42;;;;;;;56.13;35.53;;;;;;;3.54;100.00;100184.56;5085556;28;20102;-70
2023/04/07 01:07:16;;;;;;;53.63;34.33;;;;;;;3.66;100.00;100201.50;5087836;28;20107;-69
2023/04/07 01:09:47;;;;;;;53.83;35.65;;;;;;;3.71;100.00;100200.28;5088646;28;20032;-69
2023/04/07 01:12:42;;;;;;;59.25;37.13;;;;;;;3.69;100.00;100194.22;5087709;28;20031;-69
2023/04/07 01:15:11;;;;;;;52.67;34.47;;;;;;;3.78;100.00;100200.75;5072783;28;20040;-69
2023/04/07 01:17:45;;;;;;;53.25;34.97;;;;;;;3.81;100.00;100192.63;5069371;28;20174;-69
2023/04/07 01:20:13;;;;;;;;;;;;;;;3.63;100.00;100201.69;5087883;28;20032;-69
2023/04/07 01:22:59;;;;;;;53.58;33.65;;;;;;;3.49;100.00;100183.13;5087377;28;19916;-70
2023/04/07 01:25:46;;;;;;;57.67;36.10;;;;;;;3.53;100.00;100196.13;5085807;28;20926;-69
2023/04/07 01:28:39;;;;;;;59.42;38.30;;;;;;;3.61;100.00;100198.31;5069064;28;20032;-69
2023/04/07 01:31:08;;;;;;;58.08;35.92;;;;;;;3.42;100.00;100179.16;5087402;28;20199;-69
2023/04/07 01:33:36;;;;;;;61.63;38.08;;;;;;;3.46;100.00;100183.31;5087537;28;20041;-69
2023/04/07 01:36:03;;;;;;;62.97;38.90;;;;;;;3.42;100.00;100181.81;5087331;28;20031;-69
2023/04/07 01:38:30;;;;;;;67.35;41.85;;;;;;;3.44;100.00;100182.56;5068969;28;20032;-69
2023/04/07 01:40:57;;;;;;;63.30;39.88;;;;;;;3.51;100.00;100194.50;5087424;28;20024;-69
2023/04/07 01:43:25;;;;;;;61.67;38.95;;;;;;;3.49;100.00;100193.75;5086799;28;20391;-69
2023/04/07 01:45:51;;;;;;;59.33;37.38;;;;;;;3.48;100.00;100178.78;5087378;28;20046;-67
2023/04/07 01:48:17;;;;;;;57.97;37.60;;;;;;;3.46;100.00;100183.31;5068914;28;20024;-68
2023/04/07 01:50:44;;;;;;;59.35;37.45;;;;;;;3.37;100.00;100170.63;5087104;28;20111;-69
2023/04/07 01:53:11;;;;;;;59.55;38.13;;;;;;;3.40;100.00;100179.25;5086773;28;20036;-69
2023/04/07 01:55:37;;;;;;;61.17;39.17;;;;;;;3.50;100.00;100182.19;5087015;28;20032;-69
2023/04/07 01:58:06;;;;;;;60.40;38.65;;;;;;;3.51;100.00;100168.00;5087416;28;20036;-68
2023/04/07 02:00:33;;;;;;;60.53;38.65;;;;;;;3.68;100.00;100176.59;5068946;28;20748;-69
2023/04/07 02:03:22;;;;;;;59.58;38.63;;;;;;;3.56;100.00;100155.28;5086763;28;20024;-69
2023/04/07 02:05:53;;;;;;;61.47;39.65;;;;;;;3.65;100.00;100165.34;5085280;28;20048;-68
2023/04/07 02:08:21;;;;;;;57.45;37.22;;;;;;;3.62;100.00;100174.34;5086974;28;20078;-68
2023/04/07 02:10:48;;;;;;;57.55;37.00;;;;;;;3.56;100.00;100165.91;5087136;28;20036;-68
2023/04/07 02:13:18;;;;;;;60.95;39.50;;;;;;;3.54;100.00;100176.59;5086323;28;20027;-72
2023/04/07 02:15:44;;;;;;;61.38;38.67;;;;;;;3.47;100.00;100175.28;5088553;28;20035;-72
2023/04/07 02:18:13;;;;;;;63.80;38.95;;;;;;;3.48;100.00;100170.84;5087653;28;20036;-72
2023/04/07 02:20:42;;;;;;;59.58;38.38;;;;;;;3.49;100.00;100167.22;5069780;28;20484;-72
2023/04/07 02:23:08;;;;;;;61.05;39.20;;;;;;;3.45;100.00;100155.94;5069135;28;20036;-72
2023/04/07 02:25:34;;;;;;;58.45;38.28;;;;;;;3.54;100.00;100168.66;5087884;28;20028;-72
2023/04/07 02:28:00;;;;;;;62.28;40.53;;;;;;;3.47;100.00;100164.69;5087273;28;20614;-68
2023/04/07 02:30:26;;;;;;;59.50;38.50;;;;;;;3.54;100.00;100157.19;5087323;28;20031;-72
2023/04/07 02:32:52;;;;;;;61.53;40.13;;;;;;;3.54;100.00;100150.09;5087497;28;20043;-72
2023/04/07 02:35:18;;;;;;;59.40;37.58;;;;;;;3.48;100.00;100155.75;5069448;28;20480;-72
2023/04/07 02:37:44;;;;;;;60.88;38.72;;;;;;;3.51;100.00;100157.41;5069383;28;20028;-73
2023/04/07 02:40:12;;;;;;;61.55;39.28;;;;;;;3.42;100.00;100150.00;5087605;28;20131;-71
2023/04/07 02:42:38;;;;;;;60.33;38.03;;;;;;;3.51;100.00;100152.09;5087507;28;20024;-72
2023/04/07 02:45:05;;;;;;;64.03;39.97;;;;;;;3.51;100.00;100160.06;5087570;28;20032;-72
2023/04/07 02:47:32;;;;;;;59.70;39.05;;;;;;;3.52;100.00;100169.69;5087557;28;20020;-73
2023/04/07 02:49:57;;;;;;;63.85;39.40;;;;;;;3.57;100.00;100170.25;5069570;28;20123;-72
2023/04/07 02:52:23;;;;;;;62.22;39.70;;;;;;;3.46;100.00;100173.59;5069252;28;20061;-72
2023/04/07 02:54:48;;;;;;;60.78;38.30;;;;;;;3.44;100.00;100153.41;5088016;28;20035;-72
2023/04/07 02:57:14;;;;;;;60.35;38.85;;;;;;;3.49;100.00;100168.09;5087519;28;20077;-72
2023/04/07 02:59:40;;;;;;;61.38;39.50;;;;;;;3.46;100.00;100152.38;5091414;28;20043;-73
2023/04/07 03:02:05;;;;;;;62.90;38.83;;;;;;;3.45;100.00;100169.22;5089796;28;20059;-72
2023/04/07 03:04:31;;;;;;;60.88;37.50;;;;;;;3.46;100.00;100172.72;5069246;28;20452;-73
2023/04/07 03:06:56;;;;;;;58.55;38.78;;;;;;;3.45;100.00;100166.56;5091927;28;20019;-72
2023/04/07 03:09:22;;;;;;;59.88;37.47;;;;;;;3.45;100.00;100166.56;5070351;28;20036;-72
2023/04/07 03:11:48;;;;;;;59.72;37.17;;;;;;;3.44;100.00;100151.59;5087676;28;20074;-72
2023/04/07 03:14:13;;;;;;;55.08;36.63;;;;;;;3.46;100.00;100159.47;5087440;28;20061;-69
2023/04/07 03:16:39;;;;;;;56.75;36.47;;;;;;;3.45;100.00;100149.81;5092533;28;20028;-70
2023/04/07 03:19:04;;;;;;;56.90;37.20;;;;;;;3.51;100.00;100157.41;5070669;28;20051;-69
2023/04/07 03:21:30;;;;;;;57.65;36.47;;;;;;;3.51;100.00;100165.34;5085098;28;20016;-68
2023/04/07 03:23:56;;;;;;;57.97;38.00;;;;;;;3.49;100.00;100167.22;5067172;28;20032;-69
2023/04/07 03:26:22;;;;;;;55.55;36.70;;;;;;;3.36;100.00;100145.06;5085571;28;20044;-68
2023/04/07 03:28:47;;;;;;;55.83;35.22;;;;;;;3.51;100.00;100163.53;5085569;28;20086;-69
2023/04/07 03:31:12;;;;;;;58.58;37.28;;;;;;;3.46;100.00;100152.38;5084945;28;20039;-69
2023/04/07 03:33:38;;;;;;;56.60;36.50;;;;;;;3.45;100.00;100166.56;5085365;28;20024;-69
2023/04/07 03:36:04;;;;;;;59.85;38.10;;;;;;;3.48;100.00;100171.66;5066879;28;20028;-70
2023/04/07 03:38:30;;;;;;;59.22;37.67;;;;;;;3.45;100.00;100157.78;5066711;28;20073;-68
2023/04/07 03:40:56;;;;;;;59.08;38.42;;;;;;;3.44;100.00;100153.41;5084954;28;20042;-68
2023/04/07 03:43:21;;;;;;;59.00;37.55;;;;;;;3.56;100.00;100168.56;5084780;28;20036;-68
2023/04/07 03:45:47;;;;;;;59.67;37.67;;;;;;;3.40;100.00;100139.50;5085424;28;20061;-68
2023/04/07 03:48:12;;;;;;;56.78;35.70;;;;;;;3.60;100.00;100170.94;5067722;28;20529;-72
2023/04/07 03:50:41;;;;;;;61.70;38.05;;;;;;;3.49;100.00;100153.97;5068963;28;20024;-72
2023/04/07 03:53:07;;;;;;;56.08;35.92;;;;;;;3.53;100.00;100161.66;5068659;28;20035;-72
2023/04/07 03:55:33;;;;;;;53.15;36.30;;;;;;;3.61;100.00;100172.63;5086974;28;20039;-73
2023/04/07 03:57:59;;;;;;;58.72;37.47;;;;;;;3.64;100.00;100184.84;5086675;28;20427;-71
2023/04/07 04:00:25;;;;;;;56.17;36.72;;;;;;;3.60;100.00;100176.22;5086944;28;20063;-73
2023/04/07 04:02:51;;;;;;;57.25;37.83;;;;;;;3.59;100.00;100179.84;5087029;28;20016;-72
2023/04/07 04:05:17;;;;;;;60.17;38.20;;;;;;;3.61;100.00;100177.09;5086399;28;20028;-72
2023/04/07 04:07:42;;;;;;;56.80;37.22;;;;;;;3.56;100.00;100168.56;5068786;28;20031;-74
2023/04/07 04:10:08;;;;;;;53.35;35.85;;;;;;;3.58;100.00;100171.97;5086341;28;20035;-73
2023/04/07 04:12:33;;;;;;;56.92;37.00;;;;;;;3.64;100.00;100184.84;5086424;28;20024;-73
2023/04/07 04:14:59;;;;;;;55.63;36.33;;;;;;;3.52;100.00;100162.56;5086816;28;20119;-73
2023/04/07 04:17:25;;;;;;;58.88;36.55;;;;;;;3.55;100.00;100172.16;5086832;28;20051;-73
2023/04/07 04:19:51;;;;;;;57.45;36.42;;;;;;;3.67;100.00;100190.81;5086750;28;20031;-73
2023/04/07 04:22:16;;;;;;;57.72;36.25;;;;;;;3.60;100.00;100178.03;5086758;28;20107;-73
2023/04/07 04:24:42;;;;;;;59.35;37.42;;;;;;;3.66;100.00;100197.06;5086749;28;20173;-72
2023/04/07 04:27:07;;;;;;;62.30;37.75;;;;;;;3.67;100.00;100198.75;5087529;28;20079;-72
2023/04/07 04:29:33;;;;;;;55.47;35.70;;;;;;;3.56;100.00;100171.22;5088860;28;20020;-73
2023/04/07 04:31:58;;;;;;;58.67;37.38;;;;;;;3.70;100.00;100197.72;5070054;28;20429;-73
2023/04/07 04:34:24;;;;;;;54.90;36.80;;;;;;;3.68;100.00;100189.84;5086346;28;20035;-73
2023/04/07 04:36:49;;;;;;;61.28;39.53;;;;;;;3.73;100.00;100193.09;5068644;28;20070;-73
2023/04/07 04:39:15;;;;;;;57.72;37.03;;;;;;;3.66;100.00;100182.94;5086195;28;20024;-73
2023/04/07 04:41:40;;;;;;;63.38;36.80;;;;;;;3.70;100.00;100187.97;5069206;28;20031;-73
2023/04/07 04:44:06;;;;;;;57.50;37.45;;;;;;;3.60;100.00;100159.47;5086256;28;20032;-73
2023/04/07 04:46:31;;;;;;;59.13;38.08;;;;;;;3.72;100.00;100185.22;5067752;28;20034;-69
2023/04/07 04:48:57;;;;;;;58.80;37.38;;;;;;;3.82;100.00;100196.97;5083820;28;20399;-70
2023/04/07 04:51:23;;;;;;;56.97;37.45;;;;;;;3.78;100.00;100190.97;5083679;28;20032;-70
2023/04/07 04:53:48;;;;;;;57.47;36.65;;;;;;;3.69;100.00;100173.00;5066115;28;20027;-69
2023/04/07 04:56:14;;;;;;;52.28;36.70;;;;;;;3.84;100.00;100195.06;5065662;28;20153;-69
2023/04/07 04:58:44;;;;;;;63.20;38.83;;;;;;;3.89;100.00;100198.28;5065727;28;20043;-70
2023/04/07 05:01:13;;;;;;;57.08;36.97;;;;;;;3.89;100.00;100193.84;5087414;28;20059;-69
2023/04/07 05:03:38;;;;;;;54.95;35.50;;;;;;;3.96;100.00;100204.91;5065192;28;20141;-70
2023/04/07 05:06:05;;;;;;;60.40;39.00;;;;;;;3.90;100.00;100184.09;5068385;28;20058;-69
2023/04/07 05:08:30;;;;;;;60.08;38.00;;;;;;;3.93;100.00;100190.03;5068953;28;20074;-69
2023/04/07 05:10:56;;;;;;;54.33;36.25;;;;;;;3.97;100.00;100196.00;5086509;28;20113;-69
2023/04/07 05:13:21;;;;;;;57.65;39.00;;;;;;;3.97;100.00;100196.00;5068220;28;20036;-69
2023/04/07 05:15:47;;;;;;;60.03;38.08;;;;;;;3.94;100.00;100197.03;5087270;28;20525;-72
2023/04/07 05:18:13;;;;;;;62.88;39.60;;;;;;;3.89;100.00;100177.06;5086960;28;20496;-73
2023/04/07 05:20:38;;;;;;;55.03;37.30;;;;;;;4.10;100.00;100212.88;5088116;28;20480;-73
2023/04/07 05:23:04;;;;;;;57.80;38.22;;;;;;;3.99;100.00;100186.13;5087730;28;20047;-73
2023/04/07 05:25:30;;;;;;;57.38;36.88;;;;;;;3.96;100.00;100186.34;5087517;28;20045;-73
2023/04/07 05:27:57;;;;;;;56.05;36.92;;;;;;;4.09;100.00;100212.00;5068980;28;20122;-73
2023/04/07 05:30:22;;;;;;;61.88;38.75;;;;;;;4.16;100.00;100221.28;5068435;28;20471;-69
2023/04/07 05:32:48;;;;;;;65.75;39.10;;;;;;;4.04;100.00;100192.03;5086705;28;20039;-69
2023/04/07 05:35:13;;;;;;;60.95;39.40;;;;;;;4.12;100.00;100209.16;5065378;28;20081;-70
2023/04/07 05:37:39;;;;;;;61.00;38.65;;;;;;;4.14;100.00;100201.97;5081485;28;20028;-69
2023/04/07 05:40:05;;;;;;;55.67;37.08;;;;;;;4.17;100.00;100208.88;5066315;28;20040;-69
2023/04/07 05:42:31;;;;;;;55.72;37.60;;;;;;;4.23;100.00;100213.78;5079310;28;20511;-69
2023/04/07 05:44:56;;;;;;;54.75;37.03;;;;;;;4.21;100.00;100211.25;5059516;28;20124;-69
2023/04/07 05:47:22;;;;;;;61.33;39.42;;;;;;;3.97;100.00;100172.97;5065496;28;20597;-69
2023/04/07 05:49:47;;;;;;;55.72;37.00;;;;;;;4.29;100.00;100230.16;5067574;28;20088;-69
2023/04/07 05:52:13;;;;;;;56.90;38.03;;;;;;;4.32;100.00;100237.09;5086303;28;20170;-69
2023/04/07 05:54:39;;;;;;;57.33;36.35;;;;;;;4.35;100.00;100227.13;5085261;28;20107;-69
2023/04/07 05:57:06;;;;;;;59.08;38.40;;;;;;;4.36;100.00;100215.53;5087149;28;20042;-70
2023/04/07 05:59:33;;;;;;;60.30;37.17;;;;;;;4.40;100.00;100229.50;5068515;28;20040;-69
2023/04/07 06:01:58;;;;;;;55.10;37.00;;;;;;;4.32;100.00;100207.91;5087608;28;20047;-69
2023/04/07 06:04:24;;;;;;;55.42;36.38;;;;;;;4.37;100.00;100219.06;5086941;28;20016;-70
2023/04/07 06:06:51;;;;;;;59.33;38.13;;;;;;;4.40;100.00;100226.84;5086975;28;20024;-69
2023/04/07 06:09:16;;;;;;;56.85;37.75;;;;;;;4.41;100.00;100220.56;5086658;28;20504;-73
2023/04/07 06:11:42;;;;;;;55.28;38.05;;;;;;;4.40;100.00;100230.34;5088155;28;20107;-73
2023/04/07 06:14:08;;;;;;;59.78;39.08;;;;;;;4.45;100.00;100228.25;5086035;28;20020;-73
2023/04/07 06:16:34;;;;;;;56.90;37.67;;;;;;;4.46;100.00;100229.94;5070016;28;20391;-73
2023/04/07 06:19:00;;;;;;;58.17;36.75;;;;;;;4.35;100.00;100207.69;5070214;28;20026;-73
2023/04/07 06:21:26;;;;;;;56.83;38.72;;;;;;;4.55;100.00;100236.47;5087763;28;20024;-73
2023/04/07 06:23:51;;;;;;;60.80;38.40;;;;;;;4.44;100.00;100213.28;5087989;28;20032;-73
2023/04/07 06:26:17;;;;;;;59.55;38.70;;;;;;;4.56;100.00;100225.75;5087817;28;20051;-73
2023/04/07 06:28:42;;;;;;;53.72;37.08;;;;;;;4.63;100.00;100231.50;5087884;28;20053;-73
2023/04/07 06:31:08;;;;;;;56.35;37.63;;;;;;;4.57;100.00;100216.84;5087976;28;20070;-72
2023/04/07 06:33:34;;;;;;;51.75;36.17;;;;;;;4.60;100.00;100231.72;5087214;28;20079;-73
2023/04/07 06:35:59;;;;;;;52.88;35.90;;;;;;;4.55;100.00;100210.75;5087293;28;20084;-73
2023/04/07 06:38:25;;;;;;;54.47;37.50;;;;;;;4.59;100.00;100224.69;5087282;28;20114;-73
2023/04/07 06:40:50;;;;;;;58.20;38.97;;;;;;;4.58;100.00;100212.38;5087474;28;20138;-73
2023/04/07 06:43:16;;;;;;;56.88;37.45;;;;;;;4.68;100.00;100229.41;5086976;28;20016;-73
2023/04/07 06:45:41;;;;;;;55.03;36.53;;;;;;;4.77;100.00;100230.63;5087715;28;20327;-72
2023/04/07 06:48:07;;;;;;;51.50;36.03;;;;;;;4.63;100.00;100215.56;5087735;28;20537;-72
2023/04/07 06:50:32;;;;;;;49.25;34.53;;;;;;;4.78;100.00;100231.34;5087114;28;20110;-74
2023/04/07 06:52:58;;;;;;;52.75;35.50;;;;;;;4.78;100.00;100229.66;5087373;28;20082;-73
2023/04/07 06:55:23;;;;;;;50.47;35.08;;;;;;;4.87;100.00;100237.03;5086936;28;20112;-73
2023/04/07 06:57:51;;;;;;;52.70;34.50;;;;;;;4.75;100.00;100222.75;5086929;28;20669;-73
2023/04/07 07:00:17;;;;;;;50.58;34.40;;;;;;;4.71;100.00;100229.22;5087031;28;20598;-73
2023/04/07 07:02:43;;;;;;;49.15;36.80;;;;;;;4.78;100.00;100233.19;5086925;28;20040;-73
2023/04/07 07:05:10;;;;;;;48.65;33.40;;;;;;;4.83;100.00;100232.88;5086677;28;20093;-73
2023/04/07 07:07:35;;;;;;;49.42;33.60;;;;;;;4.82;100.00;100242.66;5087059;28;20032;-73
2023/04/07 07:10:01;;;;;;;45.90;32.53;;;;;;;4.92;100.00;100254.38;5087464;28;20131;-73
2023/04/07 07:12:27;;;;;;;47.35;33.60;;;;;;;4.96;100.00;100260.34;5086754;28;20060;-72
2023/04/07 07:14:52;;;;;;;47.38;32.63;;;;;;;4.81;100.00;100227.66;5068771;28;20525;-72
2023/04/07 07:17:18;;;;;;;47.92;32.03;;;;;;;4.96;100.00;100253.22;5086832;28;20039;-72
2023/04/07 07:19:43;;;;;;;49.20;33.33;;;;;;;4.88;100.00;100234.28;5087223;28;20020;-72
2023/04/07 07:22:09;;;;;;;49.60;34.67;;;;;;;5.02;100.00;100263.44;5086546;28;20031;-73
2023/04/07 07:24:35;;;;;;;47.72;33.35;;;;;;;5.06;100.00;100267.59;5068176;28;20032;-72
2023/04/07 07:27:01;;;;;;;50.03;33.10;;;;;;;5.07;99.94;100266.66;5068048;28;20020;-73
2023/04/07 07:29:27;;;;;;;50.63;33.40;;;;;;;5.15;99.52;100272.31;5085961;28;20065;-72
2023/04/07 07:31:52;;;;;;;42.28;32.05;;;;;;;5.16;99.52;100263.38;5068300;28;20032;-73
2023/04/07 07:34:17;;;;;;;41.95;32.30;;;;;;;5.25;97.03;100248.63;5085870;28;20040;-72
2023/04/07 07:36:43;;;;;;;43.95;32.15;;;;;;;5.31;96.85;100265.00;5086737;28;20439;-72
2023/04/07 07:39:09;;;;;;;44.85;33.00;;;;;;;5.32;96.54;100269.38;5067692;28;20059;-72
2023/04/07 07:41:35;;;;;;;45.85;33.20;;;;;;;5.42;96.98;100275.75;5086128;28;20064;-72
2023/04/07 07:44:00;;;;;;;48.28;34.30;;;;;;;5.46;95.46;100279.09;5085718;28;20095;-71
2023/04/07 07:46:26;;;;;;;47.50;34.15;;;;;;;5.40;95.84;100268.84;5067856;28;20035;-73
2023/04/07 07:48:52;;;;;;;44.70;31.48;;;;;;;5.54;96.12;100282.94;5086480;28;20020;-72
2023/04/07 07:51:17;;;;;;;44.67;32.78;;;;;;;5.51;93.18;100275.16;5085941;28;20036;-72
2023/04/07 07:53:44;;;;;;;45.92;32.40;;;;;;;5.53;93.31;100280.38;5085911;28;20031;-72
2023/04/07 07:56:10;;;;;;;47.42;32.67;;;;;;;5.34;94.14;100254.16;5064907;28;20489;-72
2023/04/07 07:58:36;;;;;;;45.92;33.45;;;;;;;5.48;92.42;100270.03;5067360;28;20118;-72
2023/04/07 08:01:02;;;;;;;49.42;33.42;;;;;;;5.52;93.33;100287.50;5086529;28;20048;-72
2023/04/07 08:03:27;;;;;;;47.58;34.35;;;;;;;5.56;93.87;100285.47;5084809;28;20047;-72
2023/04/07 08:05:52;;;;;;;48.08;33.45;;;;;;;5.59;94.45;100290.59;5066644;28;20177;-72
2023/04/07 08:08:18;;;;;;;47.13;33.83;;;;;;;5.75;92.18;100304.56;5084889;28;20028;-72
2023/04/07 08:10:43;;;;;;;47.30;32.47;;;;;;;5.73;90.84;100304.66;5065593;28;20425;-72
2023/04/07 08:13:09;;;;;;;47.22;32.72;;;;;;;5.65;92.50;100288.38;5066017;28;20106;-72
2023/04/07 08:15:35;;;;;;;47.20;34.33;;;;;;;5.72;90.85;100289.66;5085747;28;20020;-73
2023/04/07 08:18:03;;;;;;;49.50;35.15;;;;;;;5.85;89.60;100311.84;5088552;28;20031;-73
2023/04/07 08:20:30;;;;;;;47.15;33.17;;;;;;;5.81;89.83;100297.03;5087468;28;20026;-72
2023/04/07 08:22:56;;;;;;;49.55;35.38;;;;;;;5.68;90.86;100284.66;5085797;28;20028;-73
2023/04/07 08:25:21;;;;;;;47.92;34.08;;;;;;;5.69;92.37;100289.00;5085195;28;20058;-73
2023/04/07 08:27:47;;;;;;;52.10;36.28;;;;;;;5.81;93.60;100310.34;5081760;28;20444;-72
2023/04/07 08:30:12;;;;;;;49.50;36.13;;;;;;;5.86;94.05;100308.22;5085715;28;20028;-73
2023/04/07 08:32:40;;;;;;;52.47;34.90;;;;;;;5.86;93.16;100305.56;5066890;28;20020;-73
2023/04/07 08:35:06;;;;;;;46.97;34.60;;;;;;;5.87;93.37;100301.09;5088870;28;20670;-73
2023/04/07 08:37:32;;;;;;;47.22;34.17;;;;;;;5.98;92.48;100315.38;5086499;28;20111;-73
2023/04/07 08:39:59;;;;;;;53.72;37.10;;;;;;;6.02;92.02;100316.00;5072043;28;20048;-74
2023/04/07 08:42:28;;;;;;;51.17;36.42;;;;;;;6.03;92.59;100307.06;5072070;28;20032;-73
2023/04/07 08:45:01;;;;;;;46.42;34.15;;;;;;;6.15;92.89;100317.72;5090245;28;20027;-74
2023/04/07 08:47:29;;;;;;;51.60;34.70;;;;;;;6.18;92.04;100306.84;5089000;28;22955;-73
2023/04/07 08:49:59;;;;;;;46.38;34.33;;;;;;;6.24;91.84;100309.09;5073149;28;20020;-73
2023/04/07 08:52:48;;;;;;;49.40;35.35;;;;;;;6.25;92.52;100301.94;5072457;28;20028;-74
2023/04/07 08:55:14;;;;;;;45.72;34.10;;;;;;;6.43;92.50;100317.47;5090699;28;20032;-74
2023/04/07 08:57:41;;;;;;;48.88;35.20;;;;;;;6.45;92.91;100306.72;5073214;28;20484;-74
2023/04/07 09:00:08;;;;;;;44.88;33.08;;;;;;;6.65;91.39;100317.63;5073758;28;20480;-74
2023/04/07 09:02:39;;;;;;;44.10;33.30;;;;;;;6.78;90.08;100315.78;5072876;28;20403;-73
2023/04/07 09:05:07;;;;;;;44.65;33.97;;;;;;;6.89;88.27;100318.53;5088756;28;20976;-74
2023/04/07 09:07:34;;;;;;;44.75;33.45;;;;;;;6.89;86.99;100312.34;5086991;28;20036;-74
2023/04/07 09:10:00;;;;;;;44.70;33.25;;;;;;;6.99;85.53;100324.91;5088494;28;20028;-74
2023/04/07 09:12:27;;;;;;;44.90;33.28;;;;;;;6.91;84.53;100295.28;5088819;28;20042;-74
2023/04/07 09:14:54;;;;;;;40.08;31.42;;;;;;;7.03;82.34;100318.38;5089659;28;20023;-74
2023/04/07 09:17:20;;;;;;;41.95;30.33;;;;;;;7.14;81.52;100330.94;5070636;28;20114;-74
2023/04/07 09:19:46;;;;;;;42.80;32.92;;;;;;;7.10;83.13;100328.59;5070533;28;20024;-74
2023/04/07 09:22:13;;;;;;;44.25;32.08;;;;;;;6.94;82.72;100310.22;5088847;28;20024;-74
2023/04/07 09:24:40;;;;;;;42.83;30.58;;;;;;;7.03;78.29;100321.03;5088742;28;20560;-74
2023/04/07 09:27:17;;;;;;;43.30;30.95;;;;;;;6.89;78.43;100329.22;5086040;28;20103;-74
2023/04/07 09:29:44;;;;;;;45.38;31.58;;;;;;;6.91;79.80;100329.09;5088154;28;20024;-73
2023/04/07 09:32:12;;;;;;;42.75;31.48;;;;;;;6.86;81.65;100336.56;5089095;28;20062;-74
2023/04/07 09:34:39;;;;;;;41.15;30.92;;;;;;;6.83;82.13;100336.78;5090135;28;20027;-74
2023/04/07 09:37:08;;;;;;;44.08;31.92;;;;;;;6.74;81.81;100316.97;5090225;28;20032;-74
2023/04/07 09:39:48;;;;;;;41.20;30.50;;;;;;;6.84;81.83;100331.34;5070576;28;20024;-74
2023/04/07 09:42:13;;;;;;;42.97;32.40;;;;;;;6.76;81.65;100307.06;5088635;28;20032;-74
2023/04/07 09:44:41;;;;;;;43.92;30.95;;;;;;;6.84;82.32;100334.00;5088381;28;20130;-74
2023/04/07 09:47:07;;;;;;;45.42;32.30;;;;;;;6.80;83.48;100318.34;5070552;28;20418;-74
2023/04/07 09:49:47;;;;;;;43.65;31.83;;;;;;;6.74;84.49;100314.31;5087819;28;20073;-74
2023/04/07 09:52:12;;;;;;;44.80;33.00;;;;;;;6.81;80.30;100314.75;5088586;28;20472;-74
2023/04/07 09:54:41;;;;;;;47.28;34.17;;;;;;;6.82;82.28;100324.44;5090057;28;20034;-74
2023/04/07 09:57:08;;;;;;;49.42;33.90;;;;;;;6.88;84.12;100329.31;5070611;28;20028;-72
2023/04/07 09:59:36;;;;;;;49.13;36.38;;;;;;;6.99;83.04;100326.72;5070801;28;20044;-73
2023/04/07 10:02:02;;;;;;;46.97;33.17;;;;;;;6.97;81.60;100313.50;5089111;28;20389;-74
2023/04/07 10:04:28;;;;;;;48.13;33.28;;;;;;;6.87;81.61;100309.78;5089222;28;20043;-74
2023/04/07 10:06:54;;;;;;;44.17;33.60;;;;;;;6.84;83.23;100303.84;5088354;28;20028;-74
2023/04/07 10:09:25;;;;;;;43.83;32.58;;;;;;;6.97;82.66;100326.00;5088500;28;20476;-74
2023/04/07 10:11:52;;;;;;;45.53;34.17;;;;;;;6.94;82.24;100331.53;5071640;28;20015;-74
2023/04/07 10:14:19;;;;;;;48.20;35.25;;;;;;;6.85;83.88;100322.41;5089063;28;20027;-74
2023/04/07 10:16:46;;;;;;;49.28;36.95;;;;;;;6.92;84.98;100326.31;5088911;28;20067;-74
2023/04/07 10:19:13;;;;;;;46.80;35.33;;;;;;;6.95;84.35;100335.91;5088818;28;20116;-74
2023/04/07 10:21:41;;;;;;;50.30;36.42;;;;;;;6.98;84.07;100333.88;5102947;28;20019;-74
2023/04/07 10:24:31;;;;;;;49.80;34.95;;;;;;;6.99;83.04;100327.56;5090844;28;20028;-74
2023/04/07 10:27:00;;;;;;;51.20;35.17;;;;;;;7.02;82.74;100336.31;5075024;28;20436;-73
2023/04/07 10:29:30;;;;;;;51.72;36.50;;;;;;;6.93;83.47;100314.69;5090894;28;20471;-75
2023/04/07 10:31:58;;;;;;;45.42;33.90;;;;;;;6.94;82.55;100311.03;5089527;28;20133;-74
2023/04/07 10:34:54;;;;;;;49.92;36.13;;;;;;;7.04;82.55;100329.91;5069147;28;20036;-74
2023/04/07 10:37:21;;;;;;;53.88;37.85;;;;;;;7.04;83.72;100332.56;5086373;28;20425;-74
2023/04/07 10:40:11;;;;;;;57.38;39.95;;;;;;;7.16;81.57;100342.31;5085785;28;20050;-74
2023/04/07 10:42:36;;;;;;;54.28;38.88;;;;;;;7.20;81.26;100342.97;5087694;28;20039;-73
2023/04/07 10:45:03;;;;;;;53.25;40.40;;;;;;;7.09;81.78;100329.56;5087329;28;20036;-73
2023/04/07 10:47:29;;;;;;;55.50;40.22;;;;;;;7.06;82.67;100330.63;5086665;28;20102;-73
2023/04/07 10:50:19;;;;;;;56.45;41.40;;;;;;;7.08;82.91;100331.38;5069282;28;20082;-74
2023/04/07 10:52:46;;;;;;;56.95;40.97;;;;;;;7.06;82.39;100335.13;5085272;28;20048;-73
2023/04/07 10:55:38;;;;;;;60.65;43.35;;;;;;;7.05;83.05;100334.25;5085776;28;20036;-73
2023/04/07 10:58:17;;;;;;;60.13;41.88;;;;;;;7.04;84.27;100325.41;5064958;28;20028;-73
2023/04/07 11:01:05;;;;;;;58.45;39.67;;;;;;;7.13;84.60;100334.56;5066638;28;20604;-73
2023/04/07 11:03:33;;;;;;;48.88;35.60;;;;;;;7.13;82.82;100334.56;5084659;28;20030;-73
2023/04/07 11:06:11;;;;;;;47.90;33.72;;;;;;;7.13;83.41;100328.38;5065410;28;20626;-73
2023/04/07 11:08:41;;;;;;;46.00;34.25;;;;;;;7.21;82.08;100336.66;5086963;28;20091;-74
2023/04/07 11:11:10;;;;;;;43.75;32.83;;;;;;;7.18;82.88;100332.41;5085498;28;20043;-73
2023/04/07 11:13:43;;;;;;;48.22;34.47;;;;;;;7.17;82.39;100343.19;5086333;28;20032;-74